Time;durP1;ratioP1;P1;durP2;ratioP2;P2;SDS_P1;SDS_P2;PMS_P1;PMS_P2;Temp;Humidity;BMP_temperature;BMP_pressure;BME280_temperature;BME280_humidity;BME280_pressure;Samples;Min_cycle;Max_cycle;Signal;HPM_P1;HPM_P2
2023/08/23 00:01:54;;;;;;;2.30;2.10;;;;;;;;;;4989713;28;100017;-70
2023/08/23 00:04:20;;;;;;;2.95;2.30;;;;;;;;;;4990579;28;98358;-71
2023/08/23 00:06:47;;;;;;;4.97;2.25;;;;;;;;;;4990186;28;98764;-70
2023/08/23 00:09:16;;;;;;;2.75;2.55;;;;;;;;;;4989364;28;99045;-70
2023/08/23 00:11:45;;;;;;;10.50;2.83;;;;;;;;;;4993351;28;97972;-72
2023/08/23 00:14:11;;;;;;;2.85;2.60;;;;;;;;;;4989956;28;99058;-70
2023/08/23 00:16:38;;;;;;;4.78;2.47;;;;;;;;;;4989559;28;98213;-69
2023/08/23 00:19:05;;;;;;;4.15;2.40;;;;;;;;;;4990421;28;98927;-71
2023/08/23 00:21:31;;;;;;;2.65;2.45;;;;;;;;;;4990099;28;99839;-71
2023/08/23 00:23:57;;;;;;;2.20;2.10;;;;;;;;;;4990751;28;98288;-71
2023/08/23 00:26:24;;;;;;;2.17;2.08;;;;;;;;;;4990097;28;99426;-71
2023/08/23 00:28:50;;;;;;;2.95;2.75;;;;;;;;;;4990048;28;99968;-72
2023/08/23 00:31:17;;;;;;;2.67;2.47;;;;;;;;;;4991909;28;98562;-70
2023/08/23 00:33:43;;;;;;;2.88;2.25;;;;;;;;;;4988408;28;101998;-72
2023/08/23 00:36:10;;;;;;;2.15;1.95;;;;;;;;;;4988932;28;98257;-70
2023/08/23 00:38:36;;;;;;;2.00;1.83;;;;;;;;;;4989633;28;98134;-70
2023/08/23 00:41:03;;;;;;;4.43;2.72;;;;;;;;;;4987795;28;101657;-70
2023/08/23 00:43:30;;;;;;;3.28;2.38;;;;;;;;;;4987737;28;98328;-72
2023/08/23 00:45:57;;;;;;;2.25;2.10;;;;;;;;;;4989185;28;99499;-72
2023/08/23 00:48:23;;;;;;;2.53;2.33;;;;;;;;;;4988903;28;99836;-72
2023/08/23 00:50:50;;;;;;;2.45;2.17;;;;;;;;;;4987516;28;98266;-71
2023/08/23 00:53:16;;;;;;;7.80;2.17;;;;;;;;;;4992736;28;98424;-72
2023/08/23 00:55:43;;;;;;;5.00;2.15;;;;;;;;;;4989362;28;98216;-70
2023/08/23 00:58:09;;;;;;;2.72;2.40;;;;;;;;;;4992093;28;99375;-72
2023/08/23 01:00:36;;;;;;;2.00;1.90;;;;;;;;;;4990008;28;100291;-72
2023/08/23 01:03:02;;;;;;;1.55;1.48;;;;;;;;;;4990861;28;98221;-71
2023/08/23 01:05:32;;;;;;;2.00;1.80;;;;;;;;;;4989261;28;101083;-72
2023/08/23 01:08:02;;;;;;;2.28;2.17;;;;;;;;;;4989890;28;99997;-71
2023/08/23 01:10:32;;;;;;;3.95;2.90;;;;;;;;;;4989276;28;98210;-71
2023/08/23 01:13:19;;;;;;;2.55;2.35;;;;;;;;;;4987611;28;100943;-72
2023/08/23 01:15:48;;;;;;;2.22;2.10;;;;;;;;;;4988513;28;98937;-72
2023/08/23 01:18:15;;;;;;;2.20;2.10;;;;;;;;;;4989116;28;98223;-71
2023/08/23 01:20:43;;;;;;;3.83;2.20;;;;;;;;;;4986531;28;98991;-70
2023/08/23 01:23:16;;;;;;;2.30;2.10;;;;;;;;;;4990527;28;98137;-71
2023/08/23 01:25:51;;;;;;;2.28;2.10;;;;;;;;;;4988787;28;98639;-71
2023/08/23 01:28:19;;;;;;;2.78;2.13;;;;;;;;;;4989056;28;98728;-71
2023/08/23 01:30:46;;;;;;;3.33;3.03;;;;;;;;;;4994717;28;98069;-71
2023/08/23 01:33:14;;;;;;;2.45;2.05;;;;;;;;;;5008325;28;99311;-71
2023/08/23 01:35:41;;;;;;;2.75;2.25;;;;;;;;;;5008960;28;98742;-70
2023/08/23 01:38:08;;;;;;;3.15;2.60;;;;;;;;;;5012782;28;98125;-71
2023/08/23 01:40:35;;;;;;;2.13;1.77;;;;;;;;;;4998794;28;98824;-71
2023/08/23 01:43:01;;;;;;;2.05;1.75;;;;;;;;;;4989425;28;98307;-71
2023/08/23 01:45:28;;;;;;;2.70;2.50;;;;;;;;;;4986924;28;98708;-70
2023/08/23 01:47:54;;;;;;;2.42;2.13;;;;;;;;;;4987200;28;102053;-71
2023/08/23 01:50:21;;;;;;;2.47;2.03;;;;;;;;;;4986282;28;99700;-72
2023/08/23 01:52:47;;;;;;;4.60;2.08;;;;;;;;;;4988777;28;98465;-71
2023/08/23 01:55:17;;;;;;;2.53;2.33;;;;;;;;;;4987810;28;100357;-71
2023/08/23 01:57:47;;;;;;;10.80;2.90;;;;;;;;;;4987584;28;98179;-71
2023/08/23 02:00:14;;;;;;;3.38;2.53;;;;;;;;;;4990285;28;100960;-71
2023/08/23 02:02:41;;;;;;;3.03;2.83;;;;;;;;;;4987868;28;98290;-70
2023/08/23 02:05:08;;;;;;;4.28;2.63;;;;;;;;;;4990755;28;100369;-71
2023/08/23 02:07:34;;;;;;;3.33;2.58;;;;;;;;;;4990300;28;100888;-72
2023/08/23 02:10:01;;;;;;;3.17;2.92;;;;;;;;;;4990923;28;99012;-71
2023/08/23 02:12:28;;;;;;;3.00;2.70;;;;;;;;;;4992035;28;98780;-71
2023/08/23 02:14:55;;;;;;;3.20;2.90;;;;;;;;;;4989533;28;98735;-72
2023/08/23 02:17:21;;;;;;;4.30;3.00;;;;;;;;;;4992527;28;98142;-71
2023/08/23 02:19:48;;;;;;;2.85;2.65;;;;;;;;;;4991606;28;98364;-70
2023/08/23 02:22:14;;;;;;;4.75;2.45;;;;;;;;;;5001065;28;98416;-70
2023/08/23 02:24:41;;;;;;;2.45;2.35;;;;;;;;;;5012323;28;99442;-71
2023/08/23 02:27:09;;;;;;;4.50;2.55;;;;;;;;;;5010770;28;101514;-72
2023/08/23 02:29:35;;;;;;;2.50;2.40;;;;;;;;;;5011064;28;98613;-71
2023/08/23 02:32:05;;;;;;;4.07;2.70;;;;;;;;;;5000537;28;100636;-72
2023/08/23 02:34:31;;;;;;;2.40;2.30;;;;;;;;;;4990289;28;99417;-71
2023/08/23 02:36:57;;;;;;;2.40;2.20;;;;;;;;;;4991132;28;98245;-71
2023/08/23 02:39:24;;;;;;;2.97;2.78;;;;;;;;;;5002195;28;99527;-71
2023/08/23 02:41:50;;;;;;;3.85;2.67;;;;;;;;;;4979347;28;98816;-72
2023/08/23 02:44:17;;;;;;;3.13;2.92;;;;;;;;;;4971357;28;98392;-71
2023/08/23 02:46:43;;;;;;;3.75;2.75;;;;;;;;;;4980769;28;100078;-72
2023/08/23 02:49:10;;;;;;;3.95;2.97;;;;;;;;;;4992173;28;98196;-72
2023/08/23 02:51:36;;;;;;;5.50;3.20;;;;;;;;;;4991445;28;98425;-71
2023/08/23 02:54:03;;;;;;;4.32;3.13;;;;;;;;;;4991801;28;98942;-72
2023/08/23 02:56:31;;;;;;;3.70;3.40;;;;;;;;;;4992137;28;98959;-72
2023/08/23 02:58:57;;;;;;;3.47;3.15;;;;;;;;;;4990159;28;98538;-72
2023/08/23 03:01:24;;;;;;;5.00;3.67;;;;;;;;;;4991004;28;99018;-71
2023/08/23 03:03:52;;;;;;;3.45;3.13;;;;;;;;;;4993659;28;98207;-72
2023/08/23 03:06:19;;;;;;;4.03;3.25;;;;;;;;;;4989854;28;98935;-71
2023/08/23 03:08:45;;;;;;;4.03;3.30;;;;;;;;;;4991594;28;98234;-71
2023/08/23 03:11:12;;;;;;;5.93;3.05;;;;;;;;;;4989146;28;98566;-72
2023/08/23 03:13:39;;;;;;;3.30;3.05;;;;;;;;;;4991705;28;99826;-71
2023/08/23 03:16:06;;;;;;;3.15;2.90;;;;;;;;;;4991024;28;98177;-72
2023/08/23 03:18:32;;;;;;;8.35;3.45;;;;;;;;;;4988800;28;100535;-71
2023/08/23 03:20:59;;;;;;;4.05;2.75;;;;;;;;;;4989921;28;101852;-70
2023/08/23 03:23:26;;;;;;;5.15;2.75;;;;;;;;;;4989029;28;98333;-70
2023/08/23 03:25:54;;;;;;;3.10;2.78;;;;;;;;;;4992291;28;101231;-73
2023/08/23 03:28:21;;;;;;;3.50;3.20;;;;;;;;;;4991220;28;98200;-71
2023/08/23 03:30:47;;;;;;;5.15;2.85;;;;;;;;;;4990060;28;100979;-71
2023/08/23 03:33:15;;;;;;;4.15;3.85;;;;;;;;;;4988704;28;99915;-70
2023/08/23 03:35:41;;;;;;;3.65;3.45;;;;;;;;;;4989412;28;98330;-71
2023/08/23 03:38:08;;;;;;;3.55;3.13;;;;;;;;;;4989558;28;100544;-71
2023/08/23 03:40:38;;;;;;;3.60;3.40;;;;;;;;;;4988288;28;100024;-71
2023/08/23 03:43:04;;;;;;;3.80;3.50;;;;;;;;;;4970954;28;98133;-71
2023/08/23 03:45:31;;;;;;;4.70;3.70;;;;;;;;;;4986005;28;98839;-71
2023/08/23 03:47:57;;;;;;;5.30;4.25;;;;;;;;;;4989520;28;98979;-71
2023/08/23 03:50:24;;;;;;;9.10;3.92;;;;;;;;;;4989205;28;100492;-72
2023/08/23 03:52:51;;;;;;;4.28;3.97;;;;;;;;;;4989497;28;101166;-71
2023/08/23 03:55:17;;;;;;;4.68;4.28;;;;;;;;;;4989760;28;98545;-71
2023/08/23 03:57:44;;;;;;;4.63;4.18;;;;;;;;;;4989571;28;99512;-72
2023/08/23 04:00:10;;;;;;;6.85;4.53;;;;;;;;;;4989706;28;101497;-71
2023/08/23 04:02:42;;;;;;;8.48;5.20;;;;;;;;;;4991512;28;98674;-70
2023/08/23 04:05:11;;;;;;;5.53;4.82;;;;;;;;;;4990096;28;98537;-71
2023/08/23 04:07:39;;;;;;;7.65;5.00;;;;;;;;;;4987407;28;98770;-71
2023/08/23 04:10:06;;;;;;;6.25;4.80;;;;;;;;;;4993787;28;98138;-72
2023/08/23 04:12:32;;;;;;;6.75;4.97;;;;;;;;;;4988146;28;98859;-71
2023/08/23 04:14:58;;;;;;;9.77;5.07;;;;;;;;;;4990026;28;98333;-72
2023/08/23 04:17:25;;;;;;;6.63;4.82;;;;;;;;;;4990407;28;98455;-71
2023/08/23 04:19:52;;;;;;;9.20;6.05;;;;;;;;;;4988790;28;101548;-70
2023/08/23 04:22:18;;;;;;;6.68;4.90;;;;;;;;;;4988535;28;98766;-70
2023/08/23 04:24:45;;;;;;;5.97;4.30;;;;;;;;;;4989030;28;100963;-72
2023/08/23 04:27:12;;;;;;;5.55;4.55;;;;;;;;;;4989672;28;98875;-71
2023/08/23 04:29:38;;;;;;;11.30;5.13;;;;;;;;;;4991645;28;98202;-71
2023/08/23 04:32:09;;;;;;;4.60;4.30;;;;;;;;;;4988696;28;101691;-71
2023/08/23 04:34:37;;;;;;;4.93;4.47;;;;;;;;;;4989071;28;98300;-72
2023/08/23 04:37:05;;;;;;;7.07;4.40;;;;;;;;;;4988854;28;98340;-71
2023/08/23 04:39:31;;;;;;;11.30;4.75;;;;;;;;;;5021292;28;100176;-71
2023/08/23 04:41:58;;;;;;;7.47;5.10;;;;;;;;;;4987942;28;98314;-71
2023/08/23 04:44:26;;;;;;;5.32;4.80;;;;;;;;;;4988962;28;98421;-71
2023/08/23 04:46:54;;;;;;;6.28;5.65;;;;;;;;;;4988685;28;101250;-72
2023/08/23 04:49:23;;;;;;;8.93;6.15;;;;;;;;;;4988327;28;98232;-73
2023/08/23 04:51:49;;;;;;;7.22;5.95;;;;;;;;;;4993373;28;98366;-70
2023/08/23 04:54:15;;;;;;;15.25;5.45;;;;;;;;;;4991247;28;98142;-71
2023/08/23 04:56:43;;;;;;;7.75;6.13;;;;;;;;;;5007747;28;99525;-71
2023/08/23 04:59:09;;;;;;;5.78;5.28;;;;;;;;;;5007966;28;101301;-71
2023/08/23 05:01:36;;;;;;;8.15;6.47;;;;;;;;;;5007593;28;98334;-72
2023/08/23 05:04:03;;;;;;;9.68;5.85;;;;;;;;;;5007692;28;100936;-72
2023/08/23 05:06:29;;;;;;;8.80;7.03;;;;;;;;;;5008566;28;100077;-71
2023/08/23 05:08:57;;;;;;;9.35;6.95;;;;;;;;;;5008080;28;98331;-72
2023/08/23 05:11:24;;;;;;;10.15;7.28;;;;;;;;;;5006390;28;100950;-72
2023/08/23 05:13:51;;;;;;;9.63;6.60;;;;;;;;;;5011008;28;101033;-72
2023/08/23 05:16:18;;;;;;;9.93;6.95;;;;;;;;;;5007918;28;99436;-71
2023/08/23 05:18:45;;;;;;;9.15;7.47;;;;;;;;;;5007151;28;101368;-71
2023/08/23 05:21:11;;;;;;;10.80;7.82;;;;;;;;;;5008957;28;98221;-71
2023/08/23 05:23:38;;;;;;;11.32;7.53;;;;;;;;;;5009617;28;98380;-71
2023/08/23 05:26:05;;;;;;;10.40;8.23;;;;;;;;;;5007869;28;98719;-71
2023/08/23 05:28:32;;;;;;;14.55;8.25;;;;;;;;;;5006818;28;98257;-71
2023/08/23 05:31:00;;;;;;;18.98;9.23;;;;;;;;;;5009481;28;100267;-72
2023/08/23 05:33:27;;;;;;;14.80;9.73;;;;;;;;;;5006740;28;101912;-72
2023/08/23 05:35:54;;;;;;;10.38;8.25;;;;;;;;;;5011471;28;98334;-72
2023/08/23 05:38:23;;;;;;;13.52;9.73;;;;;;;;;;5007224;28;101602;-72
2023/08/23 05:40:51;;;;;;;14.20;8.90;;;;;;;;;;4995384;28;98952;-71
2023/08/23 05:43:18;;;;;;;11.90;9.80;;;;;;;;;;4988889;28;98477;-71
2023/08/23 05:45:44;;;;;;;11.68;8.48;;;;;;;;;;4987390;28;99994;-72
2023/08/23 05:48:11;;;;;;;11.30;9.38;;;;;;;;;;4987766;28;98475;-72
2023/08/23 05:50:37;;;;;;;13.40;9.07;;;;;;;;;;4987014;28;98716;-71
2023/08/23 05:53:09;;;;;;;14.20;9.07;;;;;;;;;;4988154;28;98996;-70
2023/08/23 05:55:36;;;;;;;15.05;9.52;;;;;;;;;;4988775;28;98111;-72
2023/08/23 05:58:02;;;;;;;13.85;9.82;;;;;;;;;;4991808;28;99923;-72
2023/08/23 06:00:29;;;;;;;14.48;9.82;;;;;;;;;;4987782;28;98371;-71
2023/08/23 06:02:55;;;;;;;12.13;9.07;;;;;;;;;;4999193;28;98518;-71
2023/08/23 06:05:22;;;;;;;14.10;9.63;;;;;;;;;;4988007;28;99130;-71
2023/08/23 06:07:48;;;;;;;14.25;10.15;;;;;;;;;;4988284;28;98214;-70
2023/08/23 06:10:15;;;;;;;12.02;8.88;;;;;;;;;;4988572;28;98536;-72
2023/08/23 06:12:42;;;;;;;10.93;8.70;;;;;;;;;;4986817;28;99224;-71
2023/08/23 06:15:09;;;;;;;13.40;9.27;;;;;;;;;;4986313;28;98113;-71
2023/08/23 06:17:35;;;;;;;12.02;8.88;;;;;;;;;;4984861;28;99670;-71
2023/08/23 06:20:04;;;;;;;13.23;8.85;;;;;;;;;;4976074;28;100619;-71
2023/08/23 06:22:31;;;;;;;12.18;9.43;;;;;;;;;;4990117;28;98701;-72
2023/08/23 06:24:57;;;;;;;9.02;7.80;;;;;;;;;;4986286;28;99001;-71
2023/08/23 06:27:24;;;;;;;12.07;8.13;;;;;;;;;;4968675;28;98347;-71
2023/08/23 06:29:50;;;;;;;10.82;8.60;;;;;;;;;;4973924;28;99353;-72
2023/08/23 06:32:16;;;;;;;10.18;9.18;;;;;;;;;;4973222;28;99218;-71
2023/08/23 06:34:43;;;;;;;10.32;8.23;;;;;;;;;;4972968;28;98263;-70
2023/08/23 06:37:09;;;;;;;17.70;8.48;;;;;;;;;;4986239;28;98493;-70
2023/08/23 06:39:36;;;;;;;9.20;7.50;;;;;;;;;;4972988;28;102086;-70
2023/08/23 06:42:02;;;;;;;14.65;7.55;;;;;;;;;;4987484;28;99503;-69
2023/08/23 06:44:30;;;;;;;12.15;7.68;;;;;;;;;;4978570;28;98748;-71
2023/08/23 06:46:57;;;;;;;13.85;7.65;;;;;;;;;;4987652;28;98346;-71
2023/08/23 06:49:23;;;;;;;5.35;4.60;;;;;;;;;;4980402;28;99327;-72
2023/08/23 06:51:49;;;;;;;6.95;5.78;;;;;;;;;;4979972;28;99772;-71
2023/08/23 06:54:16;;;;;;;7.35;4.50;;;;;;;;;;4991239;28;99432;-72
2023/08/23 06:56:42;;;;;;;9.85;4.90;;;;;;;;;;5011213;28;99342;-71
2023/08/23 06:59:09;;;;;;;6.50;4.47;;;;;;;;;;4994234;28;99095;-72
2023/08/23 07:01:35;;;;;;;5.85;5.18;;;;;;;;;;4981786;28;98247;-72
2023/08/23 07:04:02;;;;;;;5.30;4.80;;;;;;;;;;4976348;28;99986;-73
2023/08/23 07:06:29;;;;;;;6.30;5.43;;;;;;;;;;4976467;28;98732;-73
2023/08/23 07:08:55;;;;;;;8.45;4.85;;;;;;;;;;4977397;28;99405;-73
2023/08/23 07:11:22;;;;;;;6.90;5.00;;;;;;;;;;4998342;28;99222;-72
2023/08/23 07:13:48;;;;;;;5.10;4.63;;;;;;;;;;4989020;28;98312;-70
2023/08/23 07:16:15;;;;;;;8.30;4.07;;;;;;;;;;4973147;28;99348;-72
2023/08/23 07:18:42;;;;;;;5.53;5.13;;;;;;;;;;4974120;28;98949;-72
2023/08/23 07:21:09;;;;;;;8.60;4.85;;;;;;;;;;4985730;28;99882;-72
2023/08/23 07:23:36;;;;;;;5.32;4.18;;;;;;;;;;4981403;28;98687;-71
2023/08/23 07:26:03;;;;;;;5.03;3.38;;;;;;;;;;4972480;28;98346;-72
2023/08/23 07:28:29;;;;;;;11.13;3.88;;;;;;;;;;4970618;28;98857;-73
2023/08/23 07:30:59;;;;;;;8.27;3.97;;;;;;;;;;4970629;28;100313;-71
2023/08/23 07:33:26;;;;;;;3.17;2.88;;;;;;;;;;4986039;28;99744;-71
2023/08/23 07:35:59;;;;;;;4.90;3.03;;;;;;;;;;4990962;28;99359;-71
2023/08/23 07:38:26;;;;;;;4.85;2.75;;;;;;;;;;4977887;28;99214;-72
2023/08/23 07:41:00;;;;;;;8.90;2.65;;;;;;;;;;4989216;28;98178;-72
2023/08/23 07:43:26;;;;;;;5.60;2.75;;;;;;;;;;4990432;28;98442;-72
2023/08/23 07:45:53;;;;;;;3.25;2.00;;;;;;;;;;4993368;28;100174;-73
2023/08/23 07:48:21;;;;;;;6.95;2.15;;;;;;;;;;4990548;28;99322;-72
2023/08/23 07:50:49;;;;;;;3.75;2.53;;;;;;;;;;4990485;28;99937;-72
2023/08/23 07:53:16;;;;;;;7.28;2.63;;;;;;;;;;4987606;28;98263;-71
2023/08/23 07:55:42;;;;;;;7.38;2.25;;;;;;;;;;4981957;28;99644;-72
2023/08/23 07:58:09;;;;;;;10.98;3.33;;;;;;;;;;4970225;28;99215;-74
2023/08/23 08:00:36;;;;;;;8.23;2.47;;;;;;;;;;4979880;28;98377;-72
2023/08/23 08:03:03;;;;;;;7.03;1.88;;;;;;;;;;4990593;28;98611;-73
2023/08/23 08:05:30;;;;;;;7.38;1.98;;;;;;;;;;4973422;28;99887;-72
2023/08/23 08:07:57;;;;;;;5.20;2.22;;;;;;;;;;4973282;28;98269;-71
2023/08/23 08:10:34;;;;;;;3.70;1.65;;;;;;;;;;4970743;28;99040;-71
2023/08/23 08:13:01;;;;;;;2.58;1.60;;;;;;;;;;4970838;28;98944;-73
2023/08/23 08:15:28;;;;;;;1.80;1.70;;;;;;;;;;4969268;28;99153;-72
2023/08/23 08:17:54;;;;;;;5.50;2.10;;;;;;;;;;4969611;28;100939;-73
2023/08/23 08:20:23;;;;;;;6.05;1.83;;;;;;;;;;4970738;28;98286;-73
2023/08/23 08:22:49;;;;;;;5.80;2.47;;;;;;;;;;4969657;28;99374;-72
2023/08/23 08:25:16;;;;;;;6.88;2.25;;;;;;;;;;4970004;28;99926;-73
2023/08/23 08:27:43;;;;;;;2.85;2.13;;;;;;;;;;4969511;28;98305;-73
2023/08/23 08:30:09;;;;;;;4.97;2.10;;;;;;;;;;4973781;28;98536;-72
2023/08/23 08:32:36;;;;;;;4.68;2.60;;;;;;;;;;4970246;28;98223;-72
2023/08/23 08:35:04;;;;;;;5.25;2.33;;;;;;;;;;4969800;28;100167;-72
2023/08/23 08:37:30;;;;;;;2.17;1.98;;;;;;;;;;4969689;28;99958;-73
2023/08/23 08:39:56;;;;;;;1.75;1.65;;;;;;;;;;4970833;28;98211;-73
2023/08/23 08:42:23;;;;;;;5.20;1.98;;;;;;;;;;4968417;28;99235;-73
2023/08/23 08:44:49;;;;;;;3.47;2.08;;;;;;;;;;4969881;28;99998;-73
2023/08/23 08:47:16;;;;;;;3.40;2.45;;;;;;;;;;4969816;28;98871;-73
2023/08/23 08:49:42;;;;;;;4.47;2.25;;;;;;;;;;4973222;28;98910;-73
2023/08/23 08:52:11;;;;;;;4.10;2.20;;;;;;;;;;4969994;28;98218;-72
2023/08/23 08:54:39;;;;;;;4.30;2.13;;;;;;;;;;4970071;28;99366;-74
2023/08/23 08:57:06;;;;;;;2.92;1.80;;;;;;;;;;4969107;28;99007;-73
2023/08/23 08:59:33;;;;;;;3.63;1.90;;;;;;;;;;4970062;28;98258;-73
2023/08/23 09:02:00;;;;;;;3.88;1.58;;;;;;;;;;4969822;28;99316;-72
2023/08/23 09:04:28;;;;;;;2.42;1.63;;;;;;;;;;4968693;28;100327;-73
2023/08/23 09:06:55;;;;;;;5.78;2.30;;;;;;;;;;4969364;28;98230;-72
2023/08/23 09:09:22;;;;;;;5.70;2.15;;;;;;;;;;4969538;28;98662;-73
2023/08/23 09:11:48;;;;;;;1.70;1.17;;;;;;;;;;4971648;28;100040;-72
2023/08/23 09:14:15;;;;;;;2.90;1.42;;;;;;;;;;4968996;28;99410;-72
2023/08/23 09:16:43;;;;;;;3.78;1.50;;;;;;;;;;4969304;28;100323;-73
2023/08/23 09:19:12;;;;;;;7.25;1.88;;;;;;;;;;4969722;28;98253;-73
2023/08/23 09:21:42;;;;;;;5.40;1.95;;;;;;;;;;4969613;28;99356;-73
2023/08/23 09:24:09;;;;;;;6.07;1.77;;;;;;;;;;4968744;28;99961;-74
2023/08/23 09:26:36;;;;;;;3.28;1.60;;;;;;;;;;4969952;28;98295;-73
2023/08/23 09:29:03;;;;;;;3.00;1.75;;;;;;;;;;4969320;28;99446;-72
2023/08/23 09:31:29;;;;;;;5.15;1.98;;;;;;;;;;4967516;28;100009;-73
2023/08/23 09:33:56;;;;;;;3.75;1.75;;;;;;;;;;4972585;28;98298;-72
2023/08/23 09:36:24;;;;;;;7.88;1.90;;;;;;;;;;4983844;28;99099;-73
2023/08/23 09:38:51;;;;;;;2.08;1.30;;;;;;;;;;4988145;28;98278;-72
2023/08/23 09:41:18;;;;;;;3.95;1.77;;;;;;;;;;4988798;28;99622;-72
2023/08/23 09:43:47;;;;;;;4.07;2.10;;;;;;;;;;4988749;28;99965;-72
2023/08/23 09:46:14;;;;;;;5.60;1.95;;;;;;;;;;4988031;28;98264;-73
2023/08/23 09:48:41;;;;;;;3.60;2.00;;;;;;;;;;4989822;28;99362;-72
2023/08/23 09:51:08;;;;;;;3.42;2.63;;;;;;;;;;4988753;28;99293;-73
2023/08/23 09:53:37;;;;;;;9.68;2.17;;;;;;;;;;4988506;28;98251;-73
2023/08/23 09:56:06;;;;;;;6.90;1.90;;;;;;;;;;4991563;28;98689;-73
2023/08/23 09:58:32;;;;;;;4.82;1.67;;;;;;;;;;4988763;28;98197;-72
2023/08/23 10:00:59;;;;;;;1.98;1.40;;;;;;;;;;4988303;28;98531;-72
2023/08/23 10:03:25;;;;;;;4.95;1.35;;;;;;;;;;4988615;28;99170;-72
2023/08/23 10:05:53;;;;;;;3.85;1.48;;;;;;;;;;4970005;28;98126;-73
2023/08/23 10:08:19;;;;;;;2.33;1.80;;;;;;;;;;4970163;28;99343;-74
2023/08/23 10:10:50;;;;;;;6.28;2.05;;;;;;;;;;4969636;28;99236;-73
2023/08/23 10:13:17;;;;;;;2.83;1.52;;;;;;;;;;4967798;28;98311;-72
2023/08/23 10:15:43;;;;;;;5.20;1.90;;;;;;;;;;4968844;28;99544;-73
2023/08/23 10:18:11;;;;;;;3.97;1.92;;;;;;;;;;4972073;28;99925;-72
2023/08/23 10:20:38;;;;;;;8.95;2.22;;;;;;;;;;4967221;28;98488;-73
2023/08/23 10:23:11;;;;;;;2.15;1.75;;;;;;;;;;4968595;28;100203;-72
2023/08/23 10:25:37;;;;;;;3.60;1.60;;;;;;;;;;4972255;28;98183;-73
2023/08/23 10:28:04;;;;;;;2.90;1.60;;;;;;;;;;4971587;28;99041;-72
2023/08/23 10:30:30;;;;;;;1.30;1.20;;;;;;;;;;4972637;28;98977;-73
2023/08/23 10:33:07;;;;;;;3.50;1.83;;;;;;;;;;4971568;28;98255;-73
2023/08/23 10:35:34;;;;;;;1.98;1.45;;;;;;;;;;4970783;28;99202;-73
2023/08/23 10:38:02;;;;;;;4.80;1.95;;;;;;;;;;4972349;28;99205;-73
2023/08/23 10:40:29;;;;;;;2.28;1.50;;;;;;;;;;4974703;28;98145;-73
2023/08/23 10:42:56;;;;;;;4.57;2.00;;;;;;;;;;4971167;28;99862;-73
2023/08/23 10:45:23;;;;;;;5.57;2.05;;;;;;;;;;4971047;28;98235;-72
2023/08/23 10:47:51;;;;;;;5.15;1.58;;;;;;;;;;4972142;28;99419;-73
2023/08/23 10:50:18;;;;;;;5.63;1.55;;;;;;;;;;4981443;28;99085;-74
2023/08/23 10:52:49;;;;;;;6.90;1.95;;;;;;;;;;4978911;28;98447;-74
2023/08/23 10:55:18;;;;;;;6.65;2.13;;;;;;;;;;4986628;28;98742;-75
2023/08/23 10:57:45;;;;;;;2.65;1.88;;;;;;;;;;4988567;28;100116;-74
2023/08/23 11:00:13;;;;;;;2.35;2.05;;;;;;;;;;4974467;28;98299;-73
2023/08/23 11:02:39;;;;;;;1.77;1.67;;;;;;;;;;4970542;28;99879;-73
2023/08/23 11:05:07;;;;;;;5.97;2.33;;;;;;;;;;4990248;28;98255;-74
2023/08/23 11:07:34;;;;;;;3.75;1.50;;;;;;;;;;4991252;28;98903;-74
2023/08/23 11:10:01;;;;;;;3.55;1.88;;;;;;;;;;4989534;28;99887;-74
2023/08/23 11:12:28;;;;;;;2.45;1.73;;;;;;;;;;4990436;28;98239;-73
2023/08/23 11:14:55;;;;;;;2.10;1.77;;;;;;;;;;4991732;28;98853;-73
2023/08/23 11:17:22;;;;;;;2.13;1.60;;;;;;;;;;4989890;28;99420;-73
2023/08/23 11:19:49;;;;;;;3.55;2.08;;;;;;;;;;4991332;28;98232;-74
2023/08/23 11:22:16;;;;;;;4.30;2.25;;;;;;;;;;4994287;28;99389;-72
2023/08/23 11:24:42;;;;;;;1.52;1.25;;;;;;;;;;4990635;28;98426;-72
2023/08/23 11:27:13;;;;;;;4.35;1.42;;;;;;;;;;4991636;28;99553;-73
2023/08/23 11:29:42;;;;;;;5.05;1.98;;;;;;;;;;4990972;28;99872;-73
2023/08/23 11:32:11;;;;;;;3.72;2.03;;;;;;;;;;4990529;28;98252;-72
2023/08/23 11:34:38;;;;;;;4.97;1.60;;;;;;;;;;4988709;28;100143;-74
2023/08/23 11:37:07;;;;;;;1.95;1.55;;;;;;;;;;4970169;28;99592;-73
2023/08/23 11:39:34;;;;;;;4.13;1.88;;;;;;;;;;4970801;28;98267;-75
2023/08/23 11:42:01;;;;;;;4.22;2.10;;;;;;;;;;4971986;28;98544;-74
2023/08/23 11:44:27;;;;;;;3.83;2.10;;;;;;;;;;4972837;28;100286;-73
2023/08/23 11:46:56;;;;;;;3.40;1.60;;;;;;;;;;4971157;28;99279;-75
2023/08/23 11:49:23;;;;;;;5.45;2.42;;;;;;;;;;4978163;28;99342;-75
2023/08/23 11:51:50;;;;;;;5.90;1.85;;;;;;;;;;4990321;28;98245;-73
2023/08/23 11:54:17;;;;;;;3.13;1.83;;;;;;;;;;4990603;28;98777;-73
2023/08/23 11:56:44;;;;;;;5.05;2.03;;;;;;;;;;4990901;28;99072;-73
2023/08/23 11:59:12;;;;;;;3.60;2.20;;;;;;;;;;4982110;28;99017;-73
2023/08/23 12:01:39;;;;;;;8.55;2.70;;;;;;;;;;4970667;28;99506;-72
2023/08/23 12:04:07;;;;;;;3.13;2.15;;;;;;;;;;4977772;28;100184;-74
2023/08/23 12:06:34;;;;;;;4.90;2.40;;;;;;;;;;4992693;28;98241;-74
2023/08/23 12:09:01;;;;;;;2.83;2.22;;;;;;;;;;4990592;28;101522;-73
2023/08/23 12:11:27;;;;;;;2.97;2.03;;;;;;;;;;4990009;28;98109;-72
2023/08/23 12:13:54;;;;;;;5.45;2.60;;;;;;;;;;4989168;28;99520;-74
2023/08/23 12:16:21;;;;;;;4.03;2.95;;;;;;;;;;4982147;28;99940;-73
2023/08/23 12:18:48;;;;;;;2.50;2.30;;;;;;;;;;4971389;28;98292;-74
2023/08/23 12:21:15;;;;;;;5.28;2.90;;;;;;;;;;4967975;28;98745;-73
2023/08/23 12:23:42;;;;;;;4.82;1.70;;;;;;;;;;4969674;28;98952;-73
2023/08/23 12:26:08;;;;;;;4.38;1.90;;;;;;;;;;4970038;28;98400;-72
2023/08/23 12:28:37;;;;;;;4.50;2.15;;;;;;;;;;4972764;28;99163;-73
2023/08/23 12:31:04;;;;;;;6.18;2.00;;;;;;;;;;4970221;28;98319;-73
2023/08/23 12:33:33;;;;;;;3.63;1.73;;;;;;;;;;4984920;28;99233;-74
2023/08/23 12:35:59;;;;;;;3.33;2.45;;;;;;;;;;4981434;28;99278;-74
2023/08/23 12:38:26;;;;;;;4.95;1.30;;;;;;;;;;4991102;28;98280;-72
2023/08/23 12:40:52;;;;;;;5.22;1.90;;;;;;;;;;4990940;28;99571;-74
2023/08/23 12:43:19;;;;;;;4.70;1.52;;;;;;;;;;4987514;28;100253;-75
2023/08/23 12:45:46;;;;;;;3.95;1.80;;;;;;;;;;4970455;28;99470;-75
2023/08/23 12:48:15;;;;;;;8.25;1.98;;;;;;;;;;4968694;28;98511;-73
2023/08/23 12:50:41;;;;;;;4.93;1.48;;;;;;;;;;4987781;28;99379;-73
2023/08/23 12:53:07;;;;;;;2.70;1.75;;;;;;;;;;4989757;28;99670;-74
2023/08/23 12:55:34;;;;;;;4.03;1.98;;;;;;;;;;4988610;28;99970;-73
2023/08/23 12:58:00;;;;;;;3.42;1.95;;;;;;;;;;4989993;28;98343;-73
2023/08/23 13:00:27;;;;;;;3.40;1.58;;;;;;;;;;4972468;28;99473;-73
2023/08/23 13:02:59;;;;;;;3.10;1.70;;;;;;;;;;4969265;28;100185;-74
2023/08/23 13:05:26;;;;;;;3.70;1.45;;;;;;;;;;4969759;28;98226;-73
2023/08/23 13:07:52;;;;;;;11.35;1.75;;;;;;;;;;4969849;28;100492;-73
2023/08/23 13:10:19;;;;;;;5.70;1.83;;;;;;;;;;4971687;28;101227;-73
2023/08/23 13:12:45;;;;;;;2.00;1.45;;;;;;;;;;4968217;28;99749;-73
2023/08/23 13:15:12;;;;;;;2.40;1.85;;;;;;;;;;4969385;28;99900;-73
2023/08/23 13:17:39;;;;;;;12.55;2.05;;;;;;;;;;4969059;28;98275;-73
2023/08/23 13:20:06;;;;;;;10.02;1.95;;;;;;;;;;4969590;28;99496;-73
2023/08/23 13:22:32;;;;;;;4.05;1.67;;;;;;;;;;4969014;28;100128;-73
2023/08/23 13:24:59;;;;;;;1.92;1.60;;;;;;;;;;4969280;28;98315;-73
2023/08/23 13:27:25;;;;;;;10.13;1.70;;;;;;;;;;4969355;28;99475;-73
2023/08/23 13:29:52;;;;;;;4.28;1.55;;;;;;;;;;4969914;28;98952;-73
2023/08/23 13:32:18;;;;;;;2.92;1.90;;;;;;;;;;4972146;28;98144;-72
2023/08/23 13:34:53;;;;;;;5.70;2.63;;;;;;;;;;4970946;28;98978;-73
2023/08/23 13:37:20;;;;;;;8.35;2.20;;;;;;;;;;4989880;28;98161;-74
2023/08/23 13:39:46;;;;;;;5.38;2.72;;;;;;;;;;4987781;28;99670;-72
2023/08/23 13:42:12;;;;;;;3.35;1.92;;;;;;;;;;4977611;28;99858;-71
2023/08/23 13:44:40;;;;;;;5.32;2.70;;;;;;;;;;4967213;28;98690;-70
2023/08/23 13:47:07;;;;;;;7.00;2.20;;;;;;;;;;4968452;28;99552;-72
2023/08/23 13:49:33;;;;;;;5.03;2.70;;;;;;;;;;4980714;28;99952;-71
2023/08/23 13:52:00;;;;;;;6.57;2.38;;;;;;;;;;4968080;28;98291;-72
2023/08/23 13:54:26;;;;;;;13.20;2.80;;;;;;;;;;4975135;28;100053;-71
2023/08/23 13:56:52;;;;;;;2.80;2.60;;;;;;;;;;4971798;28;99321;-71
2023/08/23 13:59:19;;;;;;;5.72;3.38;;;;;;;;;;4970954;28;99587;-71
2023/08/23 14:01:45;;;;;;;8.70;2.88;;;;;;;;;;4972468;28;100288;-70
2023/08/23 14:04:12;;;;;;;4.57;2.60;;;;;;;;;;4981045;28;98599;-71
2023/08/23 14:06:38;;;;;;;4.72;2.83;;;;;;;;;;4991064;28;99534;-71
2023/08/23 14:09:05;;;;;;;4.57;2.65;;;;;;;;;;4990127;28;99023;-70
2023/08/23 14:11:36;;;;;;;4.35;2.92;;;;;;;;;;4984524;28;98538;-70
2023/08/23 14:14:03;;;;;;;4.22;3.03;;;;;;;;;;4970520;28;100792;-74
2023/08/23 14:16:30;;;;;;;5.88;3.00;;;;;;;;;;4977155;28;99270;-70
2023/08/23 14:18:56;;;;;;;5.72;2.85;;;;;;;;;;4979158;28;98539;-71
2023/08/23 14:21:23;;;;;;;6.20;2.78;;;;;;;;;;4982635;28;99876;-70
2023/08/23 14:23:49;;;;;;;4.30;2.72;;;;;;;;;;4974189;28;98537;-70
2023/08/23 14:26:18;;;;;;;5.35;2.80;;;;;;;;;;4968735;28;98799;-71
2023/08/23 14:28:45;;;;;;;4.28;2.53;;;;;;;;;;4972855;28;100200;-71
2023/08/23 14:31:11;;;;;;;4.60;2.70;;;;;;;;;;4975074;28;98679;-71
2023/08/23 14:33:38;;;;;;;5.07;2.17;;;;;;;;;;4972289;28;98749;-71
2023/08/23 14:36:05;;;;;;;3.97;1.98;;;;;;;;;;4972537;28;100775;-70
2023/08/23 14:38:31;;;;;;;2.85;1.88;;;;;;;;;;4989294;28;99220;-71